createdAt,value
2022-07-29T00:01:42.852Z,23.23
2022-07-29T00:04:10.344Z,23.17
2022-07-29T00:06:37.726Z,23.13
2022-07-29T00:09:05.191Z,23.09
2022-07-29T00:11:32.332Z,23.00
2022-07-29T00:13:59.788Z,22.96
2022-07-29T00:16:26.918Z,22.94
2022-07-29T00:18:54.190Z,22.94
2022-07-29T00:21:21.340Z,22.90
2022-07-29T00:23:48.598Z,22.91
2022-07-29T00:26:15.742Z,22.89
2022-07-29T00:28:42.998Z,22.86
2022-07-29T00:31:10.415Z,22.85
2022-07-29T00:33:37.702Z,22.82
2022-07-29T00:36:05.364Z,22.78
2022-07-29T00:38:32.721Z,22.76
2022-07-29T00:40:59.809Z,22.75
2022-07-29T00:43:27.018Z,22.74
2022-07-29T00:45:54.212Z,22.72
2022-07-29T00:48:21.419Z,22.70
2022-07-29T00:50:51.157Z,22.70
2022-07-29T00:53:18.597Z,22.67
2022-07-29T00:55:45.940Z,22.66
2022-07-29T00:58:15.138Z,22.62
2022-07-29T01:00:43.855Z,22.57
2022-07-29T01:03:12.763Z,22.52
2022-07-29T01:05:48.157Z,22.49
2022-07-29T01:08:19.822Z,22.46
2022-07-29T01:10:48.660Z,22.42
2022-07-29T01:13:17.800Z,22.41
2022-07-29T01:15:50.804Z,22.41
2022-07-29T01:18:46.306Z,22.40
2022-07-29T01:21:26.967Z,22.36
2022-07-29T01:24:09.374Z,22.34
2022-07-29T01:26:46.670Z,22.28
2022-07-29T01:29:36.014Z,22.25
2022-07-29T01:32:27.918Z,22.24
2022-07-29T01:35:10.984Z,22.27
2022-07-29T01:37:45.711Z,22.27
2022-07-29T01:40:23.409Z,22.24
2022-07-29T01:42:55.911Z,22.19
2022-07-29T01:45:39.640Z,22.14
2022-07-29T01:48:24.794Z,22.12
2022-07-29T01:52:20.213Z,21.67
2022-07-29T01:54:55.963Z,21.95
2022-07-29T01:57:29.444Z,22.00
2022-07-29T01:59:59.697Z,22.02
2022-07-29T02:02:28.490Z,22.02
2022-07-29T02:04:57.192Z,22.01
2022-07-29T02:07:27.276Z,22.03
2022-07-29T02:09:56.069Z,22.04
2022-07-29T02:12:25.096Z,22.06
2022-07-29T02:14:55.894Z,22.04
2022-07-29T02:17:34.831Z,22.04
2022-07-29T02:20:08.098Z,22.02
2022-07-29T02:22:38.956Z,22.04
2022-07-29T02:25:14.133Z,22.05
2022-07-29T02:27:43.763Z,22.09
2022-07-29T02:30:13.523Z,22.18
2022-07-29T02:32:42.837Z,22.26
2022-07-29T02:35:13.476Z,22.42
2022-07-29T02:37:42.261Z,22.62
2022-07-29T02:40:14.429Z,22.82
2022-07-29T02:42:45.434Z,23.06
2022-07-29T02:45:12.789Z,23.37
2022-07-29T02:47:46.118Z,23.70
2022-07-29T02:50:31.154Z,24.06
2022-07-29T02:53:17.657Z,24.47
2022-07-29T02:55:50.234Z,24.95
2022-07-29T02:58:29.773Z,25.35
2022-07-29T03:00:59.648Z,25.76
2022-07-29T03:03:33.165Z,26.15
2022-07-29T03:06:02.897Z,26.66
2022-07-29T03:08:32.239Z,27.14
2022-07-29T03:11:01.882Z,27.59
2022-07-29T03:13:30.632Z,28.04
2022-07-29T03:15:59.064Z,28.49
2022-07-29T03:18:27.412Z,28.96
2022-07-29T03:20:55.126Z,29.44
2022-07-29T03:23:24.955Z,29.87
2022-07-29T03:25:52.894Z,30.26
2022-07-29T03:28:20.761Z,30.71
2022-07-29T03:30:50.091Z,31.14
2022-07-29T03:33:17.618Z,31.60
2022-07-29T03:35:45.076Z,32.04
2022-07-29T03:38:12.223Z,32.52
2022-07-29T03:40:45.436Z,33.08
2022-07-29T03:43:14.651Z,33.60
2022-07-29T03:45:46.012Z,34.08
2022-07-29T03:48:15.302Z,34.52
2022-07-29T03:50:42.821Z,34.98
2022-07-29T03:53:10.427Z,35.50
2022-07-29T03:55:42.649Z,36.00
2022-07-29T03:58:12.033Z,36.52
2022-07-29T04:00:40.025Z,37.03
2022-07-29T04:03:10.692Z,37.50
2022-07-29T04:05:38.867Z,38.05
2022-07-29T04:08:06.692Z,38.62
2022-07-29T04:10:35.724Z,39.13
2022-07-29T04:13:03.451Z,39.61
2022-07-29T04:15:31.748Z,39.83
2022-07-29T04:18:00.503Z,39.99
2022-07-29T04:20:28.186Z,40.36
2022-07-29T04:22:55.632Z,40.74
2022-07-29T04:25:22.889Z,41.20
2022-07-29T04:28:02.066Z,41.57
2022-07-29T04:30:30.761Z,42.03
2022-07-29T04:32:57.991Z,42.38
2022-07-29T04:35:25.512Z,42.76
2022-07-29T04:37:52.968Z,43.19
2022-07-29T04:40:20.466Z,43.57
2022-07-29T04:42:47.849Z,43.65
2022-07-29T04:45:16.107Z,42.88
2022-07-29T04:47:43.517Z,41.70
2022-07-29T04:50:11.632Z,40.59
2022-07-29T04:52:39.041Z,39.55
2022-07-29T04:55:08.164Z,38.75
2022-07-29T04:57:35.387Z,38.31
2022-07-29T05:00:03.055Z,38.44
2022-07-29T05:02:30.268Z,39.42
2022-07-29T05:04:57.451Z,40.75
2022-07-29T05:07:24.704Z,41.88
2022-07-29T05:09:51.957Z,42.59
2022-07-29T05:12:19.105Z,43.09
2022-07-29T05:14:46.192Z,43.75
2022-07-29T05:17:13.405Z,44.37
2022-07-29T05:19:40.758Z,44.89
2022-07-29T05:22:08.013Z,45.42
2022-07-29T05:24:35.084Z,45.88
2022-07-29T05:27:02.312Z,46.24
2022-07-29T05:29:42.885Z,46.64
2022-07-29T05:32:13.353Z,47.20
2022-07-29T05:34:50.460Z,47.60
2022-07-29T05:37:20.969Z,47.78
2022-07-29T05:39:56.388Z,47.96
2022-07-29T05:42:25.554Z,48.34
2022-07-29T05:44:53.227Z,48.87
2022-07-29T05:47:20.515Z,49.29
2022-07-29T05:49:48.235Z,49.57
2022-07-29T05:52:16.408Z,49.77
2022-07-29T05:54:43.967Z,50.23
2022-07-29T05:57:23.303Z,50.61
2022-07-29T05:59:52.090Z,50.75
2022-07-29T06:02:19.678Z,50.99
2022-07-29T06:04:46.868Z,51.28
2022-07-29T06:07:14.463Z,51.56
2022-07-29T06:09:41.713Z,51.90
2022-07-29T06:12:09.372Z,52.11
2022-07-29T06:14:36.829Z,52.42
2022-07-29T06:17:04.082Z,52.69
2022-07-29T06:19:31.371Z,52.87
2022-07-29T06:21:58.632Z,53.08
2022-07-29T06:24:25.839Z,53.40
2022-07-29T06:26:53.091Z,53.72
2022-07-29T06:29:20.342Z,53.94
2022-07-29T06:31:47.494Z,54.03
2022-07-29T06:34:14.988Z,54.14
2022-07-29T06:36:42.515Z,54.40
2022-07-29T06:39:11.725Z,54.70
2022-07-29T06:41:39.571Z,54.83
2022-07-29T06:44:10.408Z,54.96
2022-07-29T06:46:37.833Z,54.82
2022-07-29T06:49:06.102Z,54.32
2022-07-29T06:51:33.393Z,53.95
2022-07-29T06:54:02.797Z,54.08
2022-07-29T06:56:39.896Z,54.17
2022-07-29T06:59:09.792Z,53.73
2022-07-29T07:01:39.155Z,52.08
2022-07-29T07:04:07.162Z,50.44
2022-07-29T07:06:34.311Z,49.10
2022-07-29T07:09:01.873Z,47.73
2022-07-29T07:11:29.124Z,46.11
2022-07-29T07:14:00.790Z,44.67
2022-07-29T07:16:30.771Z,43.37
2022-07-29T07:18:58.260Z,42.40
2022-07-29T07:21:25.504Z,41.57
2022-07-29T07:23:52.758Z,40.98
2022-07-29T07:26:20.017Z,40.54
2022-07-29T07:28:47.261Z,39.95
2022-07-29T07:31:15.435Z,39.31
2022-07-29T07:33:42.791Z,38.71
2022-07-29T07:36:10.257Z,38.18
2022-07-29T07:38:37.517Z,37.78
2022-07-29T07:41:05.285Z,37.31
2022-07-29T07:43:32.551Z,36.69
2022-07-29T07:45:59.736Z,35.83
2022-07-29T07:48:27.020Z,35.30
2022-07-29T07:50:54.108Z,34.73
2022-07-29T07:53:22.203Z,34.43
2022-07-29T07:58:36.551Z,33.75
2022-07-29T08:01:04.177Z,33.58
2022-07-29T08:03:31.526Z,33.38
2022-07-29T08:05:58.920Z,33.12
2022-07-29T08:08:26.333Z,32.74
2022-07-29T08:10:53.486Z,32.47
2022-07-29T08:13:31.509Z,32.22
2022-07-29T08:16:01.250Z,31.63
2022-07-29T08:18:30.602Z,31.60
2022-07-29T08:20:58.056Z,31.48
2022-07-29T08:23:25.553Z,31.39
2022-07-29T08:25:54.789Z,31.30
2022-07-29T08:28:25.756Z,31.14
2022-07-29T08:30:53.928Z,31.08
2022-07-29T08:33:21.176Z,30.97
2022-07-29T08:35:48.246Z,30.84
2022-07-29T08:38:15.475Z,30.78
2022-07-29T08:40:42.935Z,30.77
2022-07-29T08:43:10.390Z,30.83
2022-07-29T08:45:48.087Z,30.80
2022-07-29T08:48:21.690Z,30.86
2022-07-29T08:50:54.003Z,30.89
2022-07-29T08:53:22.909Z,31.14
2022-07-29T08:55:51.841Z,31.36
2022-07-29T08:58:23.065Z,31.65
2022-07-29T09:00:55.291Z,31.76
2022-07-29T09:03:31.762Z,31.88
2022-07-29T09:06:00.522Z,31.88
2022-07-29T09:08:28.172Z,32.00
2022-07-29T09:10:57.165Z,32.02
2022-07-29T09:13:24.417Z,32.25
2022-07-29T09:15:51.717Z,32.24
2022-07-29T09:18:37.257Z,32.23
2022-07-29T09:21:25.023Z,32.30
2022-07-29T09:24:18.658Z,32.34
2022-07-29T09:26:47.446Z,32.38
2022-07-29T09:29:24.441Z,32.46
2022-07-29T09:31:54.052Z,32.61
2022-07-29T09:34:27.094Z,32.77
2022-07-29T09:36:55.499Z,32.89
2022-07-29T09:39:28.895Z,33.07
2022-07-29T09:41:58.581Z,33.27
2022-07-29T09:44:26.878Z,33.48
2022-07-29T09:47:00.669Z,33.59
2022-07-29T09:49:28.084Z,33.74
2022-07-29T09:52:10.242Z,33.75
2022-07-29T09:54:38.108Z,33.87
2022-07-29T09:57:30.613Z,33.87
2022-07-29T10:00:04.498Z,33.79
2022-07-29T10:02:40.928Z,33.65
2022-07-29T10:05:18.280Z,33.43
2022-07-29T10:07:57.874Z,33.08
2022-07-29T10:10:26.849Z,32.79
2022-07-29T10:12:54.014Z,32.54
2022-07-29T10:15:23.607Z,32.54
2022-07-29T10:17:52.838Z,32.60
2022-07-29T10:20:21.859Z,32.58
2022-07-29T10:22:53.481Z,32.51
2022-07-29T10:25:23.102Z,32.33
2022-07-29T10:27:54.714Z,32.09
2022-07-29T10:30:23.355Z,31.77
2022-07-29T10:33:08.995Z,31.75
2022-07-29T10:36:03.666Z,31.92
2022-07-29T10:38:46.188Z,31.95
2022-07-29T10:41:27.469Z,32.18
2022-07-29T10:44:08.032Z,32.37
2022-07-29T10:46:38.161Z,32.42
2022-07-29T10:49:07.012Z,32.51
2022-07-29T10:51:54.454Z,32.62
2022-07-29T10:54:47.371Z,32.86
2022-07-29T10:57:54.270Z,33.01
2022-07-29T11:00:18.688Z,32.97
2022-07-29T11:02:50.052Z,33.06
2022-07-29T11:05:22.411Z,33.19
2022-07-29T11:08:19.755Z,33.22
2022-07-29T11:10:53.632Z,33.10
2022-07-29T11:13:48.967Z,32.98
2022-07-29T11:16:16.774Z,32.90
2022-07-29T11:19:16.052Z,32.88
2022-07-29T11:22:05.454Z,33.10
2022-07-29T11:24:35.169Z,33.20
2022-07-29T11:27:21.148Z,33.13
2022-07-29T11:29:55.810Z,32.94
2022-07-29T11:32:25.257Z,33.00
2022-07-29T11:35:38.500Z,33.07
2022-07-29T11:38:28.982Z,33.16
2022-07-29T11:41:19.030Z,33.33
2022-07-29T11:43:50.710Z,33.31
2022-07-29T11:46:43.164Z,33.21
2022-07-29T11:49:11.967Z,33.20
2022-07-29T11:51:48.715Z,33.27
2022-07-29T11:54:27.634Z,33.34
2022-07-29T11:56:56.041Z,33.32
2022-07-29T11:59:23.795Z,33.32
2022-07-29T12:02:33.272Z,33.31
2022-07-29T12:04:53.732Z,33.23
2022-07-29T12:07:35.428Z,33.01
2022-07-29T12:10:04.822Z,33.08
2022-07-29T12:12:35.680Z,33.26
2022-07-29T12:15:39.178Z,33.42
2022-07-29T12:18:19.315Z,33.54
2022-07-29T12:20:48.973Z,33.66
2022-07-29T12:23:18.850Z,33.84
2022-07-29T12:25:49.883Z,33.83
2022-07-29T12:28:26.579Z,33.64
2022-07-29T12:30:55.133Z,33.45
2022-07-29T12:33:22.362Z,33.25
2022-07-29T12:36:07.505Z,32.99
2022-07-29T12:38:38.093Z,32.96
2022-07-29T12:41:05.546Z,32.96
2022-07-29T12:43:33.103Z,33.04
2022-07-29T12:46:14.081Z,33.01
2022-07-29T12:48:43.374Z,32.90
2022-07-29T12:51:12.985Z,32.68
2022-07-29T12:53:40.691Z,32.57
2022-07-29T12:56:40.478Z,32.48
2022-07-29T12:59:15.145Z,32.42
2022-07-29T13:01:42.554Z,32.57
2022-07-29T13:04:10.105Z,32.72
2022-07-29T13:06:45.780Z,32.77
2022-07-29T13:09:18.984Z,32.78
2022-07-29T13:11:48.764Z,32.77
2022-07-29T13:14:43.248Z,32.79
2022-07-29T13:17:11.981Z,32.74
2022-07-29T13:19:45.432Z,32.71
2022-07-29T13:22:15.140Z,32.65
2022-07-29T13:24:54.273Z,32.51
2022-07-29T13:27:27.094Z,32.39
2022-07-29T13:29:57.709Z,32.30
2022-07-29T13:32:28.421Z,32.16
2022-07-29T13:34:56.818Z,32.13
2022-07-29T13:37:24.149Z,32.15
2022-07-29T13:39:53.153Z,32.15
2022-07-29T13:42:21.011Z,32.12
2022-07-29T13:44:49.900Z,32.02
2022-07-29T13:47:17.358Z,31.87
2022-07-29T13:49:44.653Z,31.71
2022-07-29T13:52:12.003Z,31.70
2022-07-29T13:54:42.792Z,31.76
2022-07-29T13:57:14.434Z,31.66
2022-07-29T13:59:43.141Z,31.66
2022-07-29T14:02:12.134Z,31.61
2022-07-29T14:04:43.009Z,31.51
2022-07-29T14:07:11.245Z,31.46
2022-07-29T14:09:43.925Z,31.49
2022-07-29T14:12:11.251Z,31.42
2022-07-29T14:14:38.531Z,31.31
2022-07-29T14:17:07.909Z,31.23
2022-07-29T14:19:36.847Z,31.11
2022-07-29T14:22:06.328Z,31.02
2022-07-29T14:24:37.219Z,30.79
2022-07-29T14:27:08.829Z,30.61
2022-07-29T14:29:38.344Z,30.53
2022-07-29T14:32:11.596Z,30.47
2022-07-29T14:34:39.690Z,30.48
2022-07-29T14:37:07.873Z,30.62
2022-07-29T14:39:42.821Z,30.79
2022-07-29T14:42:12.798Z,30.95
2022-07-29T14:44:43.238Z,31.10
2022-07-29T14:47:12.026Z,31.26
2022-07-29T14:49:39.176Z,31.35
2022-07-29T14:52:06.325Z,31.39
2022-07-29T14:54:33.577Z,31.51
2022-07-29T14:57:00.781Z,31.63
2022-07-29T14:59:28.392Z,31.66
2022-07-29T15:01:56.190Z,31.70
2022-07-29T15:04:24.021Z,31.76
2022-07-29T15:06:51.375Z,31.77
2022-07-29T15:09:19.247Z,31.70
2022-07-29T15:11:46.596Z,31.58
2022-07-29T15:14:14.050Z,31.50
2022-07-29T15:16:43.977Z,31.50
2022-07-29T15:19:14.495Z,31.60
2022-07-29T15:21:48.696Z,31.66
2022-07-29T15:24:17.846Z,31.65
2022-07-29T15:26:45.774Z,31.53
2022-07-29T15:29:13.348Z,31.44
2022-07-29T15:31:41.379Z,31.36
2022-07-29T15:34:09.071Z,31.33
2022-07-29T15:36:51.418Z,31.28
2022-07-29T15:39:21.443Z,31.15
2022-07-29T15:41:49.172Z,31.03
2022-07-29T15:44:16.405Z,30.94
2022-07-29T15:47:02.527Z,30.87
2022-07-29T15:49:48.560Z,30.71
2022-07-29T15:52:26.173Z,30.50
2022-07-29T15:54:57.826Z,30.48
2022-07-29T15:57:25.414Z,30.39
2022-07-29T15:59:52.965Z,30.32
2022-07-29T16:02:20.333Z,30.21
2022-07-29T16:04:47.777Z,30.06
2022-07-29T16:07:16.099Z,29.95
2022-07-29T16:09:47.057Z,29.98
2022-07-29T16:12:18.440Z,29.95
2022-07-29T16:14:45.904Z,29.84
2022-07-29T16:17:14.965Z,29.70
2022-07-29T16:19:43.760Z,29.63
2022-07-29T16:22:11.641Z,29.60
2022-07-29T16:24:39.714Z,29.60
2022-07-29T16:27:07.790Z,29.63
2022-07-29T16:29:37.445Z,29.61
2022-07-29T16:32:06.429Z,29.62
2022-07-29T16:34:33.993Z,29.65
2022-07-29T16:37:01.588Z,29.64
2022-07-29T16:39:29.779Z,29.64
2022-07-29T16:42:00.205Z,29.60
2022-07-29T16:44:28.510Z,29.56
2022-07-29T16:46:58.907Z,29.54
2022-07-29T16:49:27.771Z,29.51
2022-07-29T16:51:55.156Z,29.44
2022-07-29T16:54:22.511Z,29.31
2022-07-29T16:56:49.763Z,29.20
2022-07-29T16:59:17.014Z,29.12
2022-07-29T17:01:44.557Z,28.99
2022-07-29T17:04:15.114Z,28.91
2022-07-29T17:06:42.864Z,28.76
2022-07-29T17:09:12.075Z,28.69
2022-07-29T17:11:52.967Z,28.64
2022-07-29T17:14:25.271Z,28.55
2022-07-29T17:17:01.147Z,28.52
2022-07-29T17:19:32.524Z,28.47
2022-07-29T17:22:10.122Z,28.42
2022-07-29T17:24:40.921Z,28.36
2022-07-29T17:27:09.630Z,28.32
2022-07-29T17:29:37.281Z,28.27
2022-07-29T17:32:07.686Z,28.25
2022-07-29T17:34:36.545Z,28.20
2022-07-29T17:37:05.704Z,28.16
2022-07-29T17:39:34.282Z,28.12
2022-07-29T17:42:02.910Z,28.07
2022-07-29T17:44:30.937Z,28.01
2022-07-29T17:47:00.024Z,27.92
2022-07-29T17:49:28.417Z,27.87
2022-07-29T17:52:00.474Z,27.78
2022-07-29T17:54:28.547Z,27.76
2022-07-29T17:56:56.146Z,27.73
2022-07-29T17:59:23.664Z,27.64
2022-07-29T18:01:50.983Z,27.47
2022-07-29T18:04:21.196Z,27.34
2022-07-29T18:06:48.389Z,27.42
2022-07-29T18:09:15.643Z,27.46
2022-07-29T18:11:44.371Z,27.45
2022-07-29T18:14:13.729Z,27.41
2022-07-29T18:16:41.359Z,27.43
2022-07-29T18:19:08.541Z,27.43
2022-07-29T18:21:43.631Z,27.38
2022-07-29T18:24:27.754Z,27.27
2022-07-29T18:26:56.733Z,27.21
2022-07-29T18:29:24.173Z,27.31
2022-07-29T18:31:51.426Z,27.32
2022-07-29T18:34:18.685Z,27.30
2022-07-29T18:36:46.338Z,27.22
2022-07-29T18:39:20.314Z,27.18
2022-07-29T18:41:51.290Z,27.18
2022-07-29T18:44:22.703Z,27.15
2022-07-29T18:46:52.048Z,27.12
2022-07-29T18:49:19.781Z,27.09
2022-07-29T18:51:47.567Z,27.02
2022-07-29T18:54:15.432Z,27.00
2022-07-29T18:56:42.629Z,27.00
2022-07-29T18:59:10.673Z,26.97
2022-07-29T19:01:38.502Z,26.92
2022-07-29T19:04:05.977Z,26.95
2022-07-29T19:06:33.066Z,26.85
2022-07-29T19:09:00.419Z,26.87
2022-07-29T19:11:27.570Z,26.86
2022-07-29T19:13:54.781Z,26.82
2022-07-29T19:16:22.090Z,26.83
2022-07-29T19:18:49.388Z,26.87
2022-07-29T19:21:16.540Z,26.88
2022-07-29T19:24:00.684Z,26.84
2022-07-29T19:26:31.930Z,26.80
2022-07-29T19:28:59.898Z,26.82
2022-07-29T19:31:27.233Z,26.74
2022-07-29T19:33:54.505Z,26.71
2022-07-29T19:36:21.762Z,26.73
2022-07-29T19:38:48.907Z,26.75
2022-07-29T19:41:17.284Z,26.80
2022-07-29T19:43:50.354Z,26.87
2022-07-29T19:46:21.856Z,26.88
2022-07-29T19:48:49.899Z,26.93
2022-07-29T19:51:17.772Z,26.95
2022-07-29T19:53:45.013Z,26.92
2022-07-29T19:56:12.163Z,26.90
2022-07-29T19:58:41.221Z,26.94
2022-07-29T20:01:10.246Z,26.95
2022-07-29T20:03:40.342Z,26.96
2022-07-29T20:06:08.081Z,26.94
2022-07-29T20:08:35.492Z,26.89
2022-07-29T20:11:03.604Z,26.84
2022-07-29T20:13:33.184Z,26.84
2022-07-29T20:16:01.087Z,26.84
2022-07-29T20:18:28.510Z,26.81
2022-07-29T20:20:57.798Z,26.87
2022-07-29T20:23:25.043Z,26.85
2022-07-29T20:25:52.546Z,26.77
2022-07-29T20:28:21.289Z,26.80
2022-07-29T20:30:48.577Z,26.78
2022-07-29T20:33:16.555Z,26.74
2022-07-29T20:35:44.072Z,26.68
2022-07-29T20:38:15.010Z,26.77
2022-07-29T20:40:45.252Z,26.81
2022-07-29T20:43:12.838Z,26.77
2022-07-29T20:45:40.244Z,26.71
2022-07-29T20:48:08.210Z,26.75
2022-07-29T20:50:35.885Z,26.80
2022-07-29T20:53:03.239Z,26.81
2022-07-29T20:55:32.174Z,26.73
2022-07-29T20:57:59.428Z,26.72
2022-07-29T21:00:26.745Z,26.72
2022-07-29T21:02:54.042Z,26.69
2022-07-29T21:05:21.436Z,26.72
2022-07-29T21:07:48.630Z,26.73
2022-07-29T21:10:18.465Z,26.72
2022-07-29T21:12:49.236Z,26.69
2022-07-29T21:15:16.553Z,26.64
2022-07-29T21:17:47.371Z,26.60
2022-07-29T21:20:16.778Z,26.62
2022-07-29T21:22:44.799Z,26.61
2022-07-29T21:25:12.458Z,26.63
2022-07-29T21:27:58.458Z,26.58
2022-07-29T21:30:25.701Z,26.53
2022-07-29T21:32:53.017Z,26.55
2022-07-29T21:35:35.899Z,26.54
2022-07-29T21:38:07.527Z,26.49
2022-07-29T21:40:34.677Z,26.50
2022-07-29T21:43:01.931Z,26.43
2022-07-29T21:45:29.286Z,26.44
2022-07-29T21:47:56.481Z,26.42
2022-07-29T21:50:23.685Z,26.41
2022-07-29T21:52:50.834Z,26.37
2022-07-29T21:55:19.261Z,26.39
2022-07-29T21:57:46.671Z,26.37
2022-07-29T22:00:17.240Z,26.40
2022-07-29T22:02:45.271Z,26.39
2022-07-29T22:05:13.594Z,26.39
2022-07-29T22:07:55.761Z,26.40
2022-07-29T22:10:26.196Z,26.41
2022-07-29T22:12:54.909Z,26.44
2022-07-29T22:15:22.663Z,26.43
2022-07-29T22:17:50.840Z,26.43
2022-07-29T22:20:18.154Z,26.44
2022-07-29T22:22:45.349Z,26.41
2022-07-29T22:25:12.494Z,26.40
2022-07-29T22:27:40.421Z,26.36
2022-07-29T22:30:08.433Z,26.34
2022-07-29T22:32:36.300Z,26.33
2022-07-29T22:35:04.021Z,26.26
2022-07-29T22:37:31.380Z,26.16
2022-07-29T22:39:58.629Z,26.13
2022-07-29T22:42:25.879Z,26.10
2022-07-29T22:44:53.029Z,26.08
2022-07-29T22:47:46.208Z,26.07
2022-07-29T22:50:08.219Z,26.05
2022-07-29T22:52:35.473Z,26.01
2022-07-29T22:55:04.247Z,25.97
2022-07-29T22:57:31.555Z,25.94
2022-07-29T23:00:01.834Z,25.90
2022-07-29T23:02:29.322Z,25.90
2022-07-29T23:04:57.364Z,25.90
2022-07-29T23:07:24.825Z,25.89
2022-07-29T23:09:52.219Z,25.93
2022-07-29T23:12:19.427Z,25.94
2022-07-29T23:14:46.782Z,25.95
2022-07-29T23:17:14.127Z,25.92
2022-07-29T23:19:41.503Z,25.91
2022-07-29T23:22:08.645Z,25.93
2022-07-29T23:24:35.787Z,25.85
2022-07-29T23:27:03.249Z,25.85
2022-07-29T23:29:34.986Z,25.86
2022-07-29T23:32:03.959Z,25.86
2022-07-29T23:34:31.147Z,25.82
2022-07-29T23:36:58.730Z,25.80
2022-07-29T23:39:26.265Z,25.84
2022-07-29T23:41:53.766Z,25.81
2022-07-29T23:44:21.130Z,25.77
2022-07-29T23:46:48.347Z,25.68
2022-07-29T23:49:15.802Z,25.64
2022-07-29T23:51:43.048Z,25.67
2022-07-29T23:54:10.288Z,25.64
2022-07-29T23:56:37.437Z,25.63
2022-07-29T23:59:05.921Z,25.58
